createdAt,value
2022-10-17T00:01:38.110Z,14.90
2022-10-17T00:04:04.985Z,14.10
2022-10-17T00:08:58.904Z,14.10
2022-10-17T00:11:27.386Z,14.10
2022-10-17T00:13:56.192Z,14.10
2022-10-17T00:16:27.328Z,14.10
2022-10-17T00:18:54.737Z,14.10
2022-10-17T00:21:21.886Z,14.20
2022-10-17T00:23:49.034Z,14.10
2022-10-17T00:26:17.525Z,14.00
2022-10-17T00:28:47.845Z,14.00
2022-10-17T00:31:14.911Z,14.00
2022-10-17T00:33:43.061Z,14.10
2022-10-17T00:36:13.427Z,14.10
2022-10-17T00:38:40.946Z,14.10
2022-10-17T00:41:08.619Z,14.10
2022-10-17T00:43:54.825Z,14.20
2022-10-17T00:46:23.145Z,14.20
2022-10-17T00:48:52.493Z,14.20
2022-10-17T00:51:22.859Z,14.20
2022-10-17T00:53:51.753Z,14.20
2022-10-17T00:56:19.606Z,14.20
2022-10-17T00:58:46.783Z,14.20
2022-10-17T01:01:15.224Z,14.30
2022-10-17T01:03:42.178Z,14.30
2022-10-17T01:06:08.949Z,14.30
2022-10-17T01:08:36.274Z,14.30
2022-10-17T01:11:13.618Z,14.30
2022-10-17T01:13:46.725Z,14.30
2022-10-17T01:16:19.818Z,14.40
2022-10-17T01:18:56.648Z,14.30
2022-10-17T01:21:33.347Z,14.30
2022-10-17T01:24:33.980Z,14.30
2022-10-17T01:27:25.864Z,14.30
2022-10-17T01:30:37.068Z,14.30
2022-10-17T01:33:10.866Z,14.30
2022-10-17T01:35:42.145Z,14.30
2022-10-17T01:38:12.663Z,14.30
2022-10-17T01:40:45.066Z,14.30
2022-10-17T01:43:16.870Z,14.30
2022-10-17T01:45:49.772Z,14.30
2022-10-17T01:48:21.616Z,14.30
2022-10-17T01:50:52.398Z,14.20
2022-10-17T01:53:23.582Z,14.30
2022-10-17T01:55:52.836Z,14.30
2022-10-17T01:58:23.697Z,14.20
2022-10-17T02:00:51.891Z,14.20
2022-10-17T02:03:21.809Z,14.20
2022-10-17T02:05:48.681Z,14.20
2022-10-17T02:08:25.762Z,14.20
2022-10-17T02:10:56.928Z,14.20
2022-10-17T02:13:34.953Z,14.10
2022-10-17T02:16:16.352Z,14.10
2022-10-17T02:19:00.782Z,14.40
2022-10-17T02:21:36.636Z,14.10
2022-10-17T02:24:12.737Z,14.10
2022-10-17T02:26:45.927Z,14.10
2022-10-17T02:29:17.634Z,14.10
2022-10-17T02:31:48.700Z,14.10
2022-10-17T02:34:20.905Z,14.10
2022-10-17T02:36:51.839Z,14.10
2022-10-17T02:39:20.497Z,14.30
2022-10-17T02:41:49.204Z,14.10
2022-10-17T02:44:16.757Z,14.10
2022-10-17T02:46:47.566Z,14.00
2022-10-17T02:49:21.219Z,14.00
2022-10-17T02:51:54.830Z,14.00
2022-10-17T02:54:28.324Z,14.00
2022-10-17T02:57:00.639Z,14.00
2022-10-17T02:59:31.169Z,14.00
2022-10-17T03:01:58.056Z,14.00
2022-10-17T03:04:26.146Z,14.00
2022-10-17T03:06:52.941Z,14.00
2022-10-17T03:09:19.702Z,14.00
2022-10-17T03:11:46.490Z,14.30
2022-10-17T03:14:13.284Z,14.00
2022-10-17T03:16:40.209Z,14.00
2022-10-17T03:19:07.692Z,14.00
2022-10-17T03:21:37.929Z,14.00
2022-10-17T03:24:05.307Z,14.00
2022-10-17T03:26:32.175Z,14.00
2022-10-17T03:28:59.036Z,14.00
2022-10-17T03:31:25.920Z,14.00
2022-10-17T03:33:52.704Z,14.00
2022-10-17T03:38:48.448Z,14.00
2022-10-17T03:41:15.310Z,14.00
2022-10-17T03:43:42.227Z,14.00
2022-10-17T03:46:09.048Z,14.00
2022-10-17T03:48:35.969Z,13.90
2022-10-17T03:51:04.984Z,13.90
2022-10-17T03:53:32.307Z,14.00
2022-10-17T03:56:11.389Z,14.00
2022-10-17T03:58:38.272Z,14.00
2022-10-17T04:01:06.005Z,13.70
2022-10-17T04:03:33.209Z,13.70
2022-10-17T04:06:00.909Z,13.90
2022-10-17T04:10:58.742Z,13.80
2022-10-17T04:13:27.412Z,13.80
2022-10-17T04:15:54.745Z,13.80
2022-10-17T04:18:21.535Z,13.80
2022-10-17T04:20:48.312Z,13.70
2022-10-17T04:23:15.597Z,13.70
2022-10-17T04:28:09.546Z,13.70
2022-10-17T04:30:40.093Z,13.70
2022-10-17T04:33:09.127Z,13.70
2022-10-17T04:35:35.886Z,13.70
2022-10-17T04:38:02.674Z,13.70
2022-10-17T04:40:29.497Z,13.70
2022-10-17T04:47:52.190Z,13.60
2022-10-17T04:50:18.935Z,13.60
2022-10-17T04:52:45.708Z,13.70
2022-10-17T04:55:12.482Z,14.10
2022-10-17T04:57:39.300Z,13.70
2022-10-17T05:02:41.098Z,13.70
2022-10-17T05:05:09.723Z,13.80
2022-10-17T05:07:39.846Z,13.80
2022-10-17T05:10:07.877Z,13.80
2022-10-17T05:12:34.636Z,13.70
2022-10-17T05:15:01.372Z,13.70
2022-10-17T05:17:28.153Z,13.60
2022-10-17T05:19:54.918Z,13.50
2022-10-17T05:22:23.056Z,13.60
2022-10-17T05:24:49.800Z,13.60
2022-10-17T05:27:16.565Z,13.70
2022-10-17T05:29:43.321Z,13.70
2022-10-17T05:32:10.104Z,13.80
2022-10-17T05:34:36.866Z,13.80
2022-10-17T05:37:03.638Z,13.90
2022-10-17T05:39:31.833Z,13.90
2022-10-17T05:41:58.611Z,13.90
2022-10-17T05:44:25.399Z,13.80
2022-10-17T05:46:52.549Z,13.80
2022-10-17T05:49:32.630Z,13.80
2022-10-17T05:52:06.536Z,13.80
2022-10-17T05:54:34.768Z,13.80
2022-10-17T05:57:01.549Z,13.80
2022-10-17T05:59:28.339Z,13.80
2022-10-17T06:01:55.418Z,13.80
2022-10-17T06:04:22.344Z,13.80
2022-10-17T06:06:49.185Z,14.00
2022-10-17T06:09:16.042Z,13.90
2022-10-17T06:11:44.133Z,14.20
2022-10-17T06:14:10.904Z,13.80
2022-10-17T06:16:37.670Z,13.90
2022-10-17T06:21:36.303Z,13.90
2022-10-17T06:26:30.280Z,13.90
2022-10-17T06:28:58.504Z,13.90
2022-10-17T06:31:25.503Z,15.10
2022-10-17T06:33:52.325Z,14.00
2022-10-17T06:38:46.455Z,14.00
2022-10-17T06:41:15.679Z,14.10
2022-10-17T06:43:46.252Z,14.20
2022-10-17T06:46:16.736Z,14.20
2022-10-17T06:48:43.930Z,15.60
2022-10-17T06:51:11.430Z,14.30
2022-10-17T06:53:39.898Z,14.40
2022-10-17T06:56:08.173Z,14.40
2022-10-17T06:58:38.993Z,14.40
2022-10-17T07:03:41.664Z,14.60
2022-10-17T07:06:10.679Z,15.90
2022-10-17T07:08:37.658Z,14.70
2022-10-17T07:11:11.292Z,14.80
2022-10-17T07:13:39.316Z,14.90
2022-10-17T07:16:06.903Z,15.00
2022-10-17T07:18:33.813Z,15.10
2022-10-17T07:21:02.338Z,15.10
2022-10-17T07:23:29.163Z,15.20
2022-10-17T07:26:00.581Z,15.30
2022-10-17T07:28:28.450Z,15.40
2022-10-17T07:30:55.313Z,15.40
2022-10-17T07:35:49.299Z,15.60
2022-10-17T07:38:17.410Z,15.60
2022-10-17T07:40:44.353Z,15.70
2022-10-17T07:43:11.140Z,15.70
2022-10-17T07:45:37.907Z,15.80
2022-10-17T07:48:05.304Z,15.90
2022-10-17T07:50:33.069Z,16.00
2022-10-17T07:52:59.864Z,16.00
2022-10-17T07:55:28.002Z,16.10
2022-10-17T07:57:54.822Z,16.20
2022-10-17T08:00:21.608Z,16.20
2022-10-17T08:02:48.439Z,16.30
2022-10-17T08:05:15.321Z,16.40
2022-10-17T08:07:42.145Z,16.50
2022-10-17T08:10:11.332Z,16.50
2022-10-17T08:12:39.550Z,16.60
2022-10-17T08:15:07.700Z,16.70
2022-10-17T08:17:35.402Z,16.70
2022-10-17T08:20:02.208Z,16.80
2022-10-17T08:22:29.225Z,16.90
2022-10-17T08:24:56.112Z,17.00
2022-10-17T08:27:24.997Z,17.00
2022-10-17T08:29:54.045Z,17.10
2022-10-17T08:32:22.104Z,17.10
2022-10-17T08:34:48.930Z,17.10
2022-10-17T08:37:15.814Z,17.00
2022-10-17T08:39:42.761Z,17.00
2022-10-17T08:42:38.700Z,17.20
2022-10-17T08:45:16.459Z,17.20
2022-10-17T08:47:46.308Z,17.30
2022-10-17T08:50:18.089Z,17.30
2022-10-17T08:52:51.100Z,17.30
2022-10-17T08:55:27.659Z,17.50
2022-10-17T08:57:54.443Z,17.40
2022-10-17T09:00:22.761Z,17.50
2022-10-17T09:03:00.877Z,17.60
2022-10-17T09:05:35.496Z,17.70
2022-10-17T09:08:09.117Z,17.90
2022-10-17T09:10:46.601Z,17.80
2022-10-17T09:13:26.771Z,17.90
2022-10-17T09:16:10.392Z,18.00
2022-10-17T09:18:40.506Z,18.00
2022-10-17T09:21:17.616Z,18.20
2022-10-17T09:23:48.452Z,18.20
2022-10-17T09:26:15.802Z,18.30
2022-10-17T09:28:43.804Z,18.40
2022-10-17T09:31:20.179Z,18.50
2022-10-17T09:33:54.269Z,18.60
2022-10-17T09:36:24.655Z,18.70
2022-10-17T09:38:54.291Z,18.80
2022-10-17T09:44:15.949Z,19.10
2022-10-17T09:46:54.227Z,19.20
2022-10-17T09:49:28.167Z,19.20
2022-10-17T09:51:55.113Z,19.30
2022-10-17T09:54:25.127Z,19.40
2022-10-17T09:57:00.294Z,19.60
2022-10-17T09:59:32.616Z,19.70
2022-10-17T10:02:14.597Z,19.70
2022-10-17T10:05:03.674Z,19.80
2022-10-17T10:07:33.371Z,19.80
2022-10-17T10:10:02.843Z,20.00
2022-10-17T10:12:32.697Z,19.90
2022-10-17T10:15:00.175Z,19.90
2022-10-17T10:17:34.833Z,19.90
2022-10-17T10:20:02.445Z,19.90
2022-10-17T10:22:29.463Z,19.80
2022-10-17T10:25:08.296Z,19.90
2022-10-17T10:27:35.645Z,20.10
2022-10-17T10:30:03.692Z,20.20
2022-10-17T10:32:34.701Z,20.20
2022-10-17T10:35:06.838Z,20.20
2022-10-17T10:37:37.785Z,20.30
2022-10-17T10:40:07.401Z,20.30
2022-10-17T10:42:35.482Z,20.30
2022-10-17T10:45:23.723Z,20.30
2022-10-17T10:47:59.441Z,20.30
2022-10-17T10:50:30.856Z,20.40
2022-10-17T10:53:12.963Z,20.10
2022-10-17T10:55:45.244Z,20.60
2022-10-17T10:58:26.004Z,20.70
2022-10-17T11:00:54.320Z,20.80
2022-10-17T11:03:31.031Z,20.90
2022-10-17T11:06:03.071Z,21.00
2022-10-17T11:08:37.543Z,21.20
2022-10-17T11:11:17.713Z,21.40
2022-10-17T11:13:50.686Z,21.40
2022-10-17T11:16:28.460Z,22.20
2022-10-17T11:19:04.593Z,21.40
2022-10-17T11:24:20.542Z,21.50
2022-10-17T11:26:54.556Z,21.70
2022-10-17T11:29:26.180Z,21.70
2022-10-17T11:31:56.989Z,21.80
2022-10-17T11:34:27.509Z,21.80
2022-10-17T11:36:58.466Z,21.90
2022-10-17T11:39:31.326Z,21.80
2022-10-17T11:42:03.468Z,21.80
2022-10-17T11:44:35.705Z,21.90
2022-10-17T11:47:07.422Z,21.90
2022-10-17T11:49:41.862Z,21.80
2022-10-17T11:52:37.763Z,21.90
2022-10-17T11:55:13.996Z,21.80
2022-10-17T11:57:51.257Z,21.80
2022-10-17T12:00:25.020Z,24.00
2022-10-17T12:03:01.348Z,21.80
2022-10-17T12:05:38.140Z,21.90
2022-10-17T12:08:13.515Z,21.80
2022-10-17T12:10:47.046Z,21.80
2022-10-17T12:13:49.245Z,21.60
2022-10-17T12:19:24.633Z,21.70
2022-10-17T12:22:06.059Z,21.80
2022-10-17T12:24:41.275Z,22.00
2022-10-17T12:27:38.259Z,22.00
2022-10-17T12:30:30.136Z,21.90
2022-10-17T12:33:07.754Z,22.00
2022-10-17T12:35:38.028Z,22.00
2022-10-17T12:38:30.484Z,21.90
2022-10-17T12:41:07.046Z,21.80
2022-10-17T12:43:44.930Z,21.70
2022-10-17T12:46:12.866Z,21.80
2022-10-17T12:49:20.761Z,21.90
2022-10-17T12:52:20.694Z,21.90
2022-10-17T12:55:00.564Z,22.00
2022-10-17T12:57:42.814Z,22.10
2022-10-17T13:00:20.761Z,21.80
2022-10-17T13:02:49.022Z,21.80
2022-10-17T13:05:27.282Z,22.60
2022-10-17T13:07:55.701Z,21.70
2022-10-17T13:13:06.939Z,23.10
2022-10-17T13:15:34.930Z,21.70
2022-10-17T13:18:01.869Z,21.70
2022-10-17T13:20:31.869Z,23.30
2022-10-17T13:22:59.176Z,21.70
2022-10-17T13:25:28.034Z,21.70
2022-10-17T13:28:10.921Z,21.70
2022-10-17T13:30:37.992Z,21.70
2022-10-17T13:33:33.652Z,21.70
2022-10-17T13:36:02.612Z,21.70
2022-10-17T13:38:32.662Z,21.70
2022-10-17T13:41:30.022Z,21.70
2022-10-17T13:43:50.243Z,21.70
2022-10-17T13:46:37.456Z,21.80
2022-10-17T13:49:15.123Z,21.90
2022-10-17T13:51:44.921Z,21.80
2022-10-17T13:54:36.065Z,21.70
2022-10-17T13:57:05.661Z,21.80
2022-10-17T13:59:33.971Z,23.70
2022-10-17T14:02:01.931Z,21.70
2022-10-17T14:04:36.121Z,21.60
2022-10-17T14:07:24.393Z,21.60
2022-10-17T14:09:51.197Z,22.50
2022-10-17T14:12:20.994Z,21.50
2022-10-17T14:15:09.670Z,21.50
2022-10-17T14:17:38.457Z,21.50
2022-10-17T14:20:40.814Z,21.50
2022-10-17T14:23:20.952Z,21.40
2022-10-17T14:25:41.698Z,21.40
2022-10-17T14:28:15.785Z,21.40
2022-10-17T14:30:56.254Z,21.30
2022-10-17T14:33:26.745Z,21.30
2022-10-17T14:35:56.760Z,21.20
2022-10-17T14:38:24.756Z,21.10
2022-10-17T14:41:01.071Z,21.20
2022-10-17T14:43:42.374Z,21.10
2022-10-17T14:46:15.557Z,21.10
2022-10-17T14:48:43.381Z,21.10
2022-10-17T14:51:12.121Z,21.00
2022-10-17T14:53:39.997Z,20.90
2022-10-17T14:56:23.508Z,20.90
2022-10-17T14:58:52.161Z,20.90
2022-10-17T15:01:19.238Z,21.60
2022-10-17T15:03:46.228Z,20.80
2022-10-17T15:06:18.760Z,20.70
2022-10-17T15:08:45.777Z,20.70
2022-10-17T15:11:12.688Z,20.70
2022-10-17T15:13:44.648Z,20.60
2022-10-17T15:16:18.096Z,20.50
2022-10-17T15:18:44.880Z,20.40
2022-10-17T15:21:33.728Z,20.30
2022-10-17T15:24:01.581Z,21.40
2022-10-17T15:26:32.123Z,20.40
2022-10-17T15:28:59.030Z,20.30
2022-10-17T15:31:27.782Z,20.40
2022-10-17T15:36:24.867Z,20.40
2022-10-17T15:38:53.435Z,20.40
2022-10-17T15:41:20.405Z,20.40
2022-10-17T15:43:47.913Z,20.40
2022-10-17T15:46:18.701Z,20.90
2022-10-17T15:48:47.438Z,20.40
2022-10-17T15:51:14.365Z,20.50
2022-10-17T15:53:41.539Z,20.50
2022-10-17T15:56:15.469Z,20.50
2022-10-17T15:58:42.248Z,20.50
2022-10-17T16:01:19.964Z,21.20
2022-10-17T16:03:50.159Z,20.40
2022-10-17T16:06:18.643Z,20.40
2022-10-17T16:08:45.666Z,20.60
2022-10-17T16:11:18.091Z,20.30
2022-10-17T16:13:50.126Z,20.30
2022-10-17T16:16:17.324Z,20.20
2022-10-17T16:18:44.129Z,20.20
2022-10-17T16:21:14.200Z,20.20
2022-10-17T16:23:41.325Z,21.20
2022-10-17T16:26:09.243Z,20.10
2022-10-17T16:28:36.205Z,20.10
2022-10-17T16:31:03.226Z,20.10
2022-10-17T16:33:31.297Z,20.10
2022-10-17T16:35:58.207Z,20.00
2022-10-17T16:38:26.361Z,19.80
2022-10-17T16:40:53.134Z,18.80
2022-10-17T16:43:19.905Z,19.80
2022-10-17T16:51:08.574Z,19.80
2022-10-17T16:53:40.047Z,19.80
2022-10-17T16:56:08.365Z,19.80
2022-10-17T16:58:35.180Z,19.60
2022-10-17T17:01:03.027Z,19.70
2022-10-17T17:03:30.245Z,19.60
2022-10-17T17:08:24.341Z,19.50
2022-10-17T17:10:54.679Z,19.50
2022-10-17T17:13:21.748Z,19.50
2022-10-17T17:15:53.532Z,19.40
2022-10-17T17:18:20.842Z,19.30
2022-10-17T17:20:51.155Z,19.20
2022-10-17T17:23:18.076Z,19.30
2022-10-17T17:25:45.222Z,21.50
2022-10-17T17:28:13.555Z,19.30
2022-10-17T17:30:40.486Z,19.30
2022-10-17T17:33:07.332Z,19.20
2022-10-17T17:35:34.382Z,19.10
2022-10-17T17:38:03.004Z,19.20
2022-10-17T17:40:29.925Z,18.90
2022-10-17T17:42:56.978Z,18.90
2022-10-17T17:45:25.377Z,18.90
2022-10-17T17:50:30.514Z,18.70
2022-10-17T17:55:27.079Z,18.70
2022-10-17T18:00:21.590Z,18.50
2022-10-17T18:02:49.870Z,18.50
2022-10-17T18:05:23.471Z,18.50
2022-10-17T18:07:50.341Z,19.10
2022-10-17T18:10:40.515Z,18.50
2022-10-17T18:13:26.828Z,18.50
2022-10-17T18:16:38.001Z,18.40
2022-10-17T18:19:11.494Z,17.50
2022-10-17T18:21:38.366Z,20.00
2022-10-17T18:24:09.912Z,18.40
2022-10-17T18:29:04.621Z,18.40
2022-10-17T18:32:29.630Z,18.40
2022-10-17T18:35:01.387Z,18.40
2022-10-17T18:37:28.265Z,18.40
2022-10-17T18:39:55.893Z,18.30
2022-10-17T18:42:23.054Z,18.30
2022-10-17T18:44:50.217Z,18.30
2022-10-17T18:47:17.256Z,18.30
2022-10-17T18:49:44.179Z,18.20
2022-10-17T18:52:12.409Z,18.20
2022-10-17T18:54:39.310Z,18.20
2022-10-17T18:57:06.378Z,18.10
2022-10-17T18:59:33.806Z,18.10
2022-10-17T19:02:00.654Z,18.10
2022-10-17T19:04:27.671Z,18.10
2022-10-17T19:06:54.568Z,18.20
2022-10-17T19:09:22.790Z,18.20
2022-10-17T19:11:49.622Z,18.20
2022-10-17T19:14:16.819Z,18.10
2022-10-17T19:16:45.215Z,18.10
2022-10-17T19:19:14.504Z,18.10
2022-10-17T19:21:42.109Z,18.00
2022-10-17T19:24:12.751Z,18.00
2022-10-17T19:26:43.887Z,18.00
2022-10-17T19:29:13.800Z,17.90
2022-10-17T19:31:40.872Z,17.90
2022-10-17T19:34:07.770Z,17.90
2022-10-17T19:36:35.199Z,17.90
2022-10-17T19:39:02.996Z,17.90
2022-10-17T19:41:29.875Z,17.80
2022-10-17T19:43:58.109Z,17.80
2022-10-17T19:46:26.482Z,17.80
2022-10-17T19:48:53.357Z,17.80
2022-10-17T19:51:24.245Z,17.70
2022-10-17T19:53:52.228Z,17.70
2022-10-17T19:56:19.862Z,17.70
2022-10-17T19:58:47.464Z,17.70
2022-10-17T20:01:17.500Z,17.60
2022-10-17T20:03:44.554Z,17.70
2022-10-17T20:06:11.850Z,17.70
2022-10-17T20:08:39.920Z,17.70
2022-10-17T20:11:08.534Z,18.00
2022-10-17T20:13:36.834Z,17.60
2022-10-17T20:16:04.936Z,17.90
2022-10-17T20:18:33.673Z,17.60
2022-10-17T20:21:03.681Z,17.70
2022-10-17T20:23:30.790Z,17.60
2022-10-17T20:26:07.930Z,17.60
2022-10-17T20:28:46.057Z,17.60
2022-10-17T20:31:14.310Z,17.50
2022-10-17T20:33:42.526Z,17.50
2022-10-17T20:36:11.079Z,18.60
2022-10-17T20:38:38.481Z,17.50
2022-10-17T20:41:07.259Z,17.50
2022-10-17T20:43:34.472Z,17.40
2022-10-17T20:46:09.640Z,17.50
2022-10-17T20:48:44.023Z,17.50
2022-10-17T20:51:11.632Z,17.50
2022-10-17T20:53:38.498Z,17.50
2022-10-17T20:56:07.615Z,17.40
2022-10-17T21:01:06.378Z,16.70
2022-10-17T21:03:35.345Z,18.00
2022-10-17T21:06:04.054Z,17.50
2022-10-17T21:08:31.182Z,17.40
2022-10-17T21:11:07.498Z,17.40
2022-10-17T21:13:34.515Z,17.70
2022-10-17T21:16:08.433Z,17.40
2022-10-17T21:18:35.528Z,17.40
2022-10-17T21:21:12.384Z,17.40
2022-10-17T21:23:40.382Z,17.40
2022-10-17T21:26:08.952Z,17.20
2022-10-17T21:28:36.876Z,17.30
2022-10-17T21:31:08.998Z,17.20
2022-10-17T21:33:35.958Z,17.20
2022-10-17T21:36:03.101Z,17.60
2022-10-17T21:38:31.358Z,17.40
2022-10-17T21:40:58.190Z,17.30
2022-10-17T21:43:25.050Z,17.30
2022-10-17T21:45:51.930Z,17.30
2022-10-17T21:48:18.786Z,17.30
2022-10-17T21:50:45.683Z,17.20
2022-10-17T21:55:41.109Z,17.10
2022-10-17T21:58:07.910Z,17.10
2022-10-17T22:00:34.786Z,17.10
2022-10-17T22:03:01.630Z,17.30
2022-10-17T22:05:30.169Z,17.20
2022-10-17T22:07:56.991Z,17.20
2022-10-17T22:10:23.810Z,17.20
2022-10-17T22:12:52.081Z,17.10
2022-10-17T22:15:18.958Z,17.20
2022-10-17T22:17:45.809Z,17.20
2022-10-17T22:20:12.636Z,17.20
2022-10-17T22:22:39.446Z,17.20
2022-10-17T22:25:07.196Z,17.20
2022-10-17T22:27:34.030Z,17.10
2022-10-17T22:30:02.246Z,17.20
2022-10-17T22:32:29.051Z,17.10
2022-10-17T22:34:55.881Z,17.00
2022-10-17T22:37:23.203Z,17.10
2022-10-17T22:39:50.068Z,18.40
2022-10-17T22:42:16.960Z,17.10
2022-10-17T22:44:44.257Z,17.10
2022-10-17T22:47:12.450Z,17.30
2022-10-17T22:49:39.266Z,17.90
2022-10-17T22:52:06.105Z,17.00
2022-10-17T22:54:33.002Z,17.00
2022-10-17T22:56:59.889Z,17.00
2022-10-17T22:59:26.698Z,18.10
2022-10-17T23:01:53.611Z,17.00
2022-10-17T23:04:21.835Z,17.00
2022-10-17T23:06:48.692Z,17.40
2022-10-17T23:11:42.693Z,16.90
2022-10-17T23:14:09.500Z,16.90
2022-10-17T23:16:36.299Z,16.90
2022-10-17T23:19:03.104Z,17.10
2022-10-17T23:21:31.316Z,17.20
2022-10-17T23:26:25.363Z,16.90
2022-10-17T23:28:54.535Z,16.90
2022-10-17T23:31:22.585Z,16.90
2022-10-17T23:33:49.982Z,16.90
2022-10-17T23:36:19.612Z,16.90
2022-10-17T23:38:48.208Z,16.80
2022-10-17T23:41:15.997Z,16.80
2022-10-17T23:43:43.226Z,16.80
2022-10-17T23:46:10.584Z,18.60
2022-10-17T23:48:38.714Z,17.30
2022-10-17T23:51:06.482Z,16.90
2022-10-17T23:53:33.330Z,16.90
2022-10-17T23:56:01.534Z,16.90
2022-10-17T23:58:28.901Z,16.90
